EZY54ED EGKK-EDDL
Flight info
| Callsign | EZY54ED |
|---|---|
| Flight time | N/A |
| Altitude | 33000 |
| Route | DVR L9 KONAN DCT KOK UL607 SPI Y862 KENUM M170 NVO T857 BIKMU BIKMU1A |
| Aircraft | A320/M-SDE2E3FGHIJ1RWXYZ/LB1 |
Departure
| Time | 2026-05-04 16:47 |
|---|---|
| Airport | London Gatwick Airport (EGKK) |
Arrival
| Time | N/A |
|---|---|
| Airport | Düsseldorf Airport (EDDL) |
| Time | Latitude | Longitude | Altitude | Speed | Heading |
|---|---|---|---|---|---|
| 2026-05-04 16:05 | 51.15987 | -0.17976 | 212 ft | 0 kts | 78° |
| 2026-05-04 16:32 | 51.15976 | -0.18072 | 213 ft | 4 kts | 91° |
| 2026-05-04 16:33 | 51.15997 | -0.18137 | 216 ft | 3 kts | 167° |
| 2026-05-04 16:33 | 51.16015 | -0.18143 | 215 ft | 0 kts | 167° |
| 2026-05-04 16:35 | 51.15862 | -0.18090 | 213 ft | 17 kts | 169° |
| 2026-05-04 16:36 | 51.15752 | -0.18052 | 205 ft | 15 kts | 166° |
| 2026-05-04 16:36 | 51.15671 | -0.18172 | 211 ft | 11 kts | 257° |
| 2026-05-04 16:37 | 51.15607 | -0.18649 | 205 ft | 25 kts | 257° |
| 2026-05-04 16:37 | 51.15561 | -0.18828 | 207 ft | 12 kts | 205° |
| 2026-05-04 16:37 | 51.15424 | -0.18782 | 205 ft | 9 kts | 165° |
| 2026-05-04 16:38 | 51.15325 | -0.18754 | 212 ft | 6 kts | 171° |
| 2026-05-04 16:39 | 51.15154 | -0.18702 | 209 ft | 7 kts | 189° |
| 2026-05-04 16:39 | 51.15110 | -0.18885 | 210 ft | 24 kts | 255° |
| 2026-05-04 16:40 | 51.15038 | -0.19429 | 212 ft | 26 kts | 258° |
| 2026-05-04 16:40 | 51.14954 | -0.20017 | 213 ft | 29 kts | 258° |
| 2026-05-04 16:41 | 51.14866 | -0.20652 | 207 ft | 30 kts | 258° |
| 2026-05-04 16:41 | 51.14689 | -0.21396 | 207 ft | 16 kts | 152° |
| 2026-05-04 16:42 | 51.14616 | -0.21329 | 208 ft | 0 kts | 168° |
| 2026-05-04 16:44 | 51.14603 | -0.21325 | 205 ft | 9 kts | 168° |
| 2026-05-04 16:45 | 51.14522 | -0.21162 | 207 ft | 0 kts | 77° |
| 2026-05-04 16:46 | 51.14596 | -0.20632 | 209 ft | 83 kts | 77° |
| 2026-05-04 16:46 | 51.15004 | -0.17662 | 306 ft | 176 kts | 76° |
| 2026-05-04 16:47 | 51.15535 | -0.13833 | 1674 ft | 183 kts | 78° |
| 2026-05-04 16:47 | 51.16134 | -0.09302 | 2139 ft | 238 kts | 78° |
| 2026-05-04 16:48 | 51.16859 | -0.00965 | 4394 ft | 264 kts | 90° |
| 2026-05-04 16:48 | 51.16811 | 0.01978 | 5237 ft | 268 kts | 90° |
| 2026-05-04 16:49 | 51.16692 | 0.08015 | 6860 ft | 277 kts | 91° |
| 2026-05-04 16:49 | 51.16577 | 0.14067 | 8417 ft | 285 kts | 91° |
| 2026-05-04 16:50 | 51.16526 | 0.20645 | 10082 ft | 291 kts | 90° |
| 2026-05-04 16:50 | 51.16552 | 0.27054 | 11506 ft | 298 kts | 90° |
| 2026-05-04 16:51 | 51.16579 | 0.33726 | 12957 ft | 305 kts | 91° |
| 2026-05-04 16:51 | 51.16587 | 0.37121 | 13665 ft | 308 kts | 91° |
| 2026-05-04 16:51 | 51.16593 | 0.44013 | 14936 ft | 314 kts | 91° |
| 2026-05-04 16:52 | 51.16594 | 0.51066 | 15951 ft | 330 kts | 91° |
| 2026-05-04 16:52 | 51.16593 | 0.54834 | 16085 ft | 350 kts | 91° |
| 2026-05-04 16:53 | 51.16584 | 0.62752 | 16996 ft | 365 kts | 91° |
| 2026-05-04 16:53 | 51.16562 | 0.75067 | 18706 ft | 376 kts | 92° |
| 2026-05-04 16:54 | 51.16555 | 0.79241 | 18935 ft | 378 kts | 92° |
| 2026-05-04 16:55 | 51.16495 | 0.95970 | 18999 ft | 377 kts | 92° |
| 2026-05-04 16:55 | 51.16459 | 1.04328 | 19008 ft | 377 kts | 92° |
| 2026-05-04 16:56 | 51.16419 | 1.12631 | 19003 ft | 377 kts | 92° |
| 2026-05-04 16:56 | 51.16345 | 1.25165 | 19000 ft | 377 kts | 92° |
| 2026-05-04 16:57 | 51.16315 | 1.29347 | 18999 ft | 377 kts | 92° |
| 2026-05-04 16:57 | 51.16229 | 1.37700 | 18999 ft | 377 kts | 94° |
| 2026-05-04 16:58 | 51.15646 | 1.50187 | 18997 ft | 377 kts | 96° |
| 2026-05-04 16:58 | 51.15413 | 1.54347 | 18997 ft | 377 kts | 97° |
| 2026-05-04 16:59 | 51.14970 | 1.62623 | 18999 ft | 377 kts | 96° |
| 2026-05-04 17:00 | 51.14143 | 1.79290 | 18992 ft | 377 kts | 96° |
| 2026-05-04 17:00 | 51.13505 | 1.91790 | 19000 ft | 377 kts | 96° |
| 2026-05-04 17:01 | 51.13068 | 2.00095 | 19004 ft | 376 kts | 96° |
| 2026-05-04 17:01 | 51.12637 | 2.08334 | 19003 ft | 376 kts | 96° |
| 2026-05-04 17:02 | 51.12195 | 2.16630 | 19000 ft | 376 kts | 96° |
| 2026-05-04 17:02 | 51.11749 | 2.24923 | 18997 ft | 376 kts | 96° |
| 2026-05-04 17:03 | 51.11522 | 2.29065 | 18991 ft | 376 kts | 96° |
| 2026-05-04 17:03 | 51.11292 | 2.33210 | 18990 ft | 376 kts | 96° |
| 2026-05-04 17:03 | 51.10825 | 2.41497 | 18993 ft | 376 kts | 96° |
| 2026-05-04 17:04 | 51.10357 | 2.49719 | 18992 ft | 376 kts | 96° |
| 2026-05-04 17:04 | 51.09883 | 2.57985 | 18992 ft | 375 kts | 97° |
| 2026-05-04 17:05 | 51.09266 | 2.66224 | 18993 ft | 374 kts | 105° |
| 2026-05-04 17:05 | 51.07848 | 2.74180 | 18992 ft | 374 kts | 107° |
| 2026-05-04 17:06 | 51.06408 | 2.82123 | 19005 ft | 374 kts | 107° |
| 2026-05-04 17:06 | 51.05697 | 2.86043 | 19004 ft | 374 kts | 107° |
| 2026-05-04 17:07 | 51.04256 | 2.93961 | 19004 ft | 373 kts | 107° |
| 2026-05-04 17:07 | 51.03767 | 2.96639 | 19004 ft | 373 kts | 107° |
| 2026-05-04 17:07 | 51.02808 | 3.01876 | 19001 ft | 373 kts | 107° |
| 2026-05-04 17:07 | 51.02082 | 3.05829 | 18994 ft | 373 kts | 107° |
| 2026-05-04 17:08 | 51.01353 | 3.09784 | 18990 ft | 373 kts | 107° |
| 2026-05-04 17:08 | 50.99890 | 3.17687 | 19045 ft | 375 kts | 107° |
| 2026-05-04 17:08 | 50.99152 | 3.21666 | 19580 ft | 377 kts | 107° |
| 2026-05-04 17:09 | 50.98407 | 3.25679 | 20100 ft | 381 kts | 108° |
| 2026-05-04 17:09 | 50.97663 | 3.29670 | 20589 ft | 384 kts | 108° |
| 2026-05-04 17:09 | 50.96897 | 3.33759 | 21070 ft | 389 kts | 107° |
| 2026-05-04 17:10 | 50.95346 | 3.42049 | 22076 ft | 396 kts | 108° |
| 2026-05-04 17:10 | 50.92954 | 3.54750 | 23569 ft | 405 kts | 108° |
| 2026-05-04 17:11 | 50.92139 | 3.59042 | 23982 ft | 408 kts | 108° |
| 2026-05-04 17:11 | 50.91319 | 3.63351 | 24404 ft | 410 kts | 108° |
| 2026-05-04 17:11 | 50.90328 | 3.68558 | 24906 ft | 412 kts | 109° |
| 2026-05-04 17:12 | 50.89554 | 3.72621 | 25289 ft | 413 kts | 109° |
| 2026-05-04 17:12 | 50.87871 | 3.81360 | 26091 ft | 416 kts | 109° |
| 2026-05-04 17:13 | 50.85309 | 3.94520 | 27219 ft | 422 kts | 110° |
| 2026-05-04 17:14 | 50.82690 | 4.07903 | 28299 ft | 427 kts | 110° |
| 2026-05-04 17:14 | 50.81806 | 4.12401 | 28645 ft | 429 kts | 110° |
| 2026-05-04 17:14 | 50.80019 | 4.21454 | 29308 ft | 433 kts | 111° |
| 2026-05-04 17:15 | 50.79119 | 4.26004 | 29603 ft | 435 kts | 111° |
| 2026-05-04 17:15 | 50.77302 | 4.35180 | 30171 ft | 439 kts | 111° |
| 2026-05-04 17:16 | 50.75471 | 4.44355 | 30654 ft | 443 kts | 111° |
| 2026-05-04 17:16 | 50.72654 | 4.58327 | 31365 ft | 446 kts | 112° |
| 2026-05-04 17:17 | 50.71717 | 4.62991 | 31703 ft | 445 kts | 111° |
| 2026-05-04 17:17 | 50.69018 | 4.77005 | 32588 ft | 445 kts | 112° |
| 2026-05-04 17:18 | 50.68125 | 4.81672 | 32879 ft | 445 kts | 112° |
| 2026-05-04 17:19 | 50.64463 | 5.00177 | 32970 ft | 443 kts | 113° |
| 2026-05-04 17:20 | 50.60628 | 5.18608 | 32986 ft | 444 kts | 114° |
| 2026-05-04 17:20 | 50.57742 | 5.32489 | 32989 ft | 445 kts | 114° |
| 2026-05-04 17:21 | 50.53889 | 5.50916 | 32991 ft | 445 kts | 114° |
| 2026-05-04 17:22 | 50.52511 | 5.60414 | 32583 ft | 454 kts | 95° |
| 2026-05-04 17:23 | 50.55576 | 5.74498 | 30206 ft | 459 kts | 65° |
| 2026-05-04 17:23 | 50.57092 | 5.78901 | 29159 ft | 456 kts | 65° |
| 2026-05-04 17:23 | 50.60044 | 5.87548 | 27429 ft | 441 kts | 65° |
| 2026-05-04 17:24 | 50.61473 | 5.91770 | 26618 ft | 433 kts | 64° |
| 2026-05-04 17:24 | 50.65140 | 6.02697 | 24562 ft | 414 kts | 64° |
| 2026-05-04 17:25 | 50.66915 | 6.08015 | 23577 ft | 405 kts | 63° |
| 2026-05-04 17:25 | 50.69484 | 6.15722 | 21904 ft | 394 kts | 63° |
| 2026-05-04 17:26 | 50.71911 | 6.22955 | 20412 ft | 383 kts | 64° |
| 2026-05-04 17:26 | 50.75085 | 6.33412 | 18826 ft | 354 kts | 48° |
| 2026-05-04 17:27 | 50.78535 | 6.38034 | 17699 ft | 343 kts | 38° |
| 2026-05-04 17:27 | 50.82966 | 6.43455 | 16742 ft | 337 kts | 38° |
| 2026-05-04 17:28 | 50.86071 | 6.47242 | 16170 ft | 333 kts | 38° |
| 2026-05-04 17:29 | 50.92008 | 6.54474 | 15120 ft | 324 kts | 38° |
| 2026-05-04 17:29 | 50.97308 | 6.60918 | 14223 ft | 317 kts | 38° |
| 2026-05-04 17:30 | 51.02589 | 6.67285 | 12979 ft | 320 kts | 38° |
| 2026-05-04 17:31 | 51.06121 | 6.71537 | 12267 ft | 317 kts | 38° |
| 2026-05-04 17:31 | 51.11459 | 6.77961 | 11199 ft | 311 kts | 38° |
| 2026-05-04 17:32 | 51.14784 | 6.81975 | 10573 ft | 307 kts | 38° |
| 2026-05-04 17:33 | 51.19778 | 6.88024 | 9627 ft | 299 kts | 38° |
| 2026-05-04 17:33 | 51.21435 | 6.90035 | 9236 ft | 298 kts | 38° |
| 2026-05-04 17:34 | 51.25810 | 6.95366 | 8187 ft | 295 kts | 38° |
| 2026-05-04 17:34 | 51.27385 | 6.97382 | 7790 ft | 293 kts | 45° |
| 2026-05-04 17:35 | 51.32061 | 7.05242 | 6455 ft | 289 kts | 48° |
| 2026-05-04 17:35 | 51.34513 | 7.09448 | 5723 ft | 287 kts | 48° |
| 2026-05-04 17:35 | 51.36129 | 7.12236 | 5264 ft | 285 kts | 48° |
| 2026-05-04 17:36 | 51.37526 | 7.14536 | 5081 ft | 273 kts | 39° |
| 2026-05-04 17:36 | 51.38506 | 7.15470 | 5005 ft | 266 kts | 21° |
| 2026-05-04 17:36 | 51.40576 | 7.15770 | 4856 ft | 249 kts | 344° |
| 2026-05-04 17:36 | 51.41125 | 7.15491 | 4811 ft | 244 kts | 334° |
| 2026-05-04 17:37 | 51.44991 | 7.11616 | 4313 ft | 221 kts | 323° |
| 2026-05-04 17:37 | 51.47273 | 7.09127 | 3995 ft | 218 kts | 323° |
| 2026-05-04 17:38 | 51.49547 | 7.06029 | 4003 ft | 215 kts | 292° |
| 2026-05-04 17:38 | 51.49724 | 7.05312 | 4003 ft | 212 kts | 280° |
| 2026-05-04 17:38 | 51.49153 | 7.01735 | 4006 ft | 203 kts | 221° |